createdAt,value
2023-12-03T00:00:51.862Z,53.30
2023-12-03T00:03:19.038Z,53.83
2023-12-03T00:05:46.162Z,52.70
2023-12-03T00:08:13.538Z,57.73
2023-12-03T00:10:40.549Z,59.03
2023-12-03T00:13:07.625Z,59.93
2023-12-03T00:15:34.597Z,53.57
2023-12-03T00:18:01.786Z,51.97
2023-12-03T00:20:28.879Z,59.45
2023-12-03T00:22:55.857Z,48.57
2023-12-03T00:25:22.908Z,54.87
2023-12-03T00:27:50.877Z,52.07
2023-12-03T00:30:18.203Z,49.47
2023-12-03T00:32:45.765Z,47.20
2023-12-03T00:35:15.201Z,51.42
2023-12-03T00:37:43.205Z,51.87
2023-12-03T00:40:10.665Z,47.60
2023-12-03T00:42:37.787Z,50.30
2023-12-03T00:45:05.308Z,52.23
2023-12-03T00:47:32.273Z,46.63
2023-12-03T00:49:59.259Z,39.92
2023-12-03T00:52:26.273Z,41.43
2023-12-03T00:54:53.332Z,44.20
2023-12-03T00:57:20.323Z,53.40
2023-12-03T00:59:47.321Z,51.25
2023-12-03T01:02:14.279Z,48.28
2023-12-03T01:04:41.453Z,52.33
2023-12-03T01:07:08.775Z,53.78
2023-12-03T01:09:35.718Z,56.63
2023-12-03T01:12:02.773Z,58.20
2023-12-03T01:14:29.753Z,52.67
2023-12-03T01:16:56.717Z,60.63
2023-12-03T01:19:23.872Z,56.30
2023-12-03T01:21:51.061Z,56.03
2023-12-03T01:24:18.540Z,60.90
2023-12-03T01:26:48.351Z,58.77
2023-12-03T01:29:16.572Z,58.37
2023-12-03T01:31:43.692Z,55.70
2023-12-03T01:34:10.790Z,54.63
2023-12-03T01:36:37.837Z,59.10
2023-12-03T01:39:06.561Z,48.40
2023-12-03T01:41:35.287Z,52.67
2023-12-03T01:44:03.013Z,51.97
2023-12-03T01:46:30.669Z,54.80
2023-12-03T01:48:57.903Z,48.43
2023-12-03T01:51:25.304Z,47.30
2023-12-03T01:53:52.809Z,51.27
2023-12-03T01:56:19.884Z,47.67
2023-12-03T01:58:47.547Z,50.50
2023-12-03T02:01:14.642Z,59.07
2023-12-03T02:03:41.645Z,58.13
2023-12-03T02:06:10.618Z,57.37
2023-12-03T02:08:38.606Z,58.47
2023-12-03T02:11:07.553Z,51.90
2023-12-03T02:13:37.871Z,55.17
2023-12-03T02:16:05.752Z,55.07
2023-12-03T02:18:36.732Z,51.80
2023-12-03T02:21:04.219Z,44.17
2023-12-03T02:23:31.929Z,51.03
2023-12-03T02:25:59.566Z,41.08
2023-12-03T02:28:26.593Z,35.95
2023-12-03T02:30:53.650Z,38.23
2023-12-03T02:33:20.930Z,42.00
2023-12-03T02:35:48.893Z,36.47
2023-12-03T02:38:15.997Z,44.47
2023-12-03T02:40:43.002Z,40.63
2023-12-03T02:43:09.955Z,43.27
2023-12-03T02:45:37.114Z,39.53
2023-12-03T02:48:04.231Z,39.05
2023-12-03T02:50:31.334Z,43.05
2023-12-03T02:52:58.397Z,44.33
2023-12-03T02:55:25.368Z,38.93
2023-12-03T02:57:52.943Z,34.95
2023-12-03T03:00:20.527Z,29.93
2023-12-03T03:02:48.003Z,34.87
2023-12-03T03:05:15.050Z,36.30
2023-12-03T03:07:42.192Z,34.50
2023-12-03T03:10:09.531Z,35.53
2023-12-03T03:12:36.597Z,38.17
2023-12-03T03:15:03.871Z,32.77
2023-12-03T03:17:30.879Z,35.60
2023-12-03T03:19:57.882Z,32.50
2023-12-03T03:22:24.850Z,36.67
2023-12-03T03:24:53.722Z,38.28
2023-12-03T03:27:20.849Z,35.78
2023-12-03T03:29:47.806Z,37.95
2023-12-03T03:32:15.106Z,37.80
2023-12-03T03:34:42.473Z,34.17
2023-12-03T03:37:09.530Z,41.17
2023-12-03T03:39:36.713Z,48.20
2023-12-03T03:42:04.723Z,45.27
2023-12-03T03:44:31.822Z,45.63
2023-12-03T03:46:59.343Z,53.83
2023-12-03T03:49:26.351Z,38.27
2023-12-03T03:51:53.345Z,44.13
2023-12-03T03:54:20.393Z,38.13
2023-12-03T03:56:50.821Z,41.17
2023-12-03T03:59:18.020Z,38.63
2023-12-03T04:01:45.954Z,41.07
2023-12-03T04:04:13.591Z,46.17
2023-12-03T04:06:46.018Z,46.37
2023-12-03T04:09:14.289Z,45.40
2023-12-03T04:11:48.124Z,43.10
2023-12-03T04:14:19.383Z,44.07
2023-12-03T04:16:46.834Z,48.13
2023-12-03T04:19:14.011Z,39.70
2023-12-03T04:21:41.133Z,38.47
2023-12-03T04:24:08.526Z,37.58
2023-12-03T04:26:36.050Z,34.10
2023-12-03T04:29:03.009Z,35.38
2023-12-03T04:31:30.210Z,34.87
2023-12-03T04:33:57.859Z,25.35
2023-12-03T04:36:25.635Z,24.90
2023-12-03T04:38:53.881Z,23.53
2023-12-03T04:41:21.166Z,23.88
2023-12-03T04:43:48.237Z,25.98
2023-12-03T04:46:17.553Z,25.15
2023-12-03T04:48:44.671Z,20.90
2023-12-03T04:51:15.172Z,20.85
2023-12-03T04:53:43.209Z,24.67
2023-12-03T04:56:10.633Z,21.83
2023-12-03T04:58:38.042Z,26.92
2023-12-03T05:01:05.236Z,22.52
2023-12-03T05:03:32.352Z,20.63
2023-12-03T05:05:59.368Z,24.65
2023-12-03T05:08:26.387Z,32.13
2023-12-03T05:10:53.363Z,33.40
2023-12-03T05:13:20.314Z,38.33
2023-12-03T05:15:47.335Z,38.42
2023-12-03T05:18:14.820Z,38.03
2023-12-03T05:20:42.445Z,35.70
2023-12-03T05:23:09.434Z,34.60
2023-12-03T05:25:36.375Z,37.60
2023-12-03T05:28:05.993Z,36.08
2023-12-03T05:30:32.985Z,34.42
2023-12-03T05:33:00.078Z,36.53
2023-12-03T05:35:27.376Z,34.03
2023-12-03T05:37:54.326Z,30.53
2023-12-03T05:40:21.333Z,27.70
2023-12-03T05:42:49.265Z,24.27
2023-12-03T05:45:16.351Z,23.50
2023-12-03T05:47:43.574Z,25.33
2023-12-03T05:50:10.710Z,29.33
2023-12-03T05:52:37.804Z,23.90
2023-12-03T05:55:05.866Z,21.23
2023-12-03T05:57:32.889Z,18.42
2023-12-03T06:00:00.067Z,17.75
2023-12-03T06:02:27.060Z,13.97
2023-12-03T06:04:54.082Z,15.23
2023-12-03T06:07:21.144Z,16.80
2023-12-03T06:09:48.136Z,17.13
2023-12-03T06:12:15.220Z,18.33
2023-12-03T06:14:42.339Z,19.67
2023-12-03T06:17:09.298Z,14.03
2023-12-03T06:19:36.278Z,18.83
2023-12-03T06:22:03.501Z,21.83
2023-12-03T06:24:30.468Z,15.57
2023-12-03T06:26:57.512Z,16.87
2023-12-03T06:29:24.488Z,16.63
2023-12-03T06:31:52.663Z,24.35
2023-12-03T06:34:19.764Z,23.40
2023-12-03T06:36:47.891Z,27.27
2023-12-03T06:39:14.911Z,24.67
2023-12-03T06:41:41.980Z,23.13
2023-12-03T06:44:09.015Z,22.97
2023-12-03T06:46:42.415Z,23.60
2023-12-03T06:49:11.250Z,23.83
2023-12-03T06:51:38.370Z,22.70
2023-12-03T06:54:05.399Z,25.25
2023-12-03T06:56:32.422Z,21.37
2023-12-03T06:58:59.461Z,21.60
2023-12-03T07:01:26.544Z,18.47
2023-12-03T07:03:53.964Z,20.90
2023-12-03T07:06:21.258Z,19.17
2023-12-03T07:08:48.465Z,23.47
2023-12-03T07:11:15.539Z,20.92
2023-12-03T07:13:44.070Z,16.83
2023-12-03T07:16:11.954Z,15.73
2023-12-03T07:18:44.217Z,17.60
2023-12-03T07:23:41.143Z,22.93
2023-12-03T07:26:11.721Z,20.57
2023-12-03T07:28:38.865Z,23.40
2023-12-03T07:31:06.184Z,24.87
2023-12-03T07:33:33.823Z,27.87
2023-12-03T07:36:01.266Z,24.50
2023-12-03T07:38:29.887Z,27.40
2023-12-03T07:40:57.345Z,26.13
2023-12-03T07:43:24.484Z,25.13
2023-12-03T07:45:51.478Z,18.63
2023-12-03T07:48:18.587Z,18.30
2023-12-03T07:50:46.102Z,18.40
2023-12-03T07:53:13.292Z,20.80
2023-12-03T07:55:40.293Z,17.10
2023-12-03T07:58:08.483Z,19.03
2023-12-03T08:00:36.301Z,14.63
2023-12-03T08:03:04.128Z,14.70
2023-12-03T08:05:31.909Z,16.87
2023-12-03T08:08:00.096Z,13.00
2023-12-03T08:10:27.496Z,14.87
2023-12-03T08:12:54.565Z,12.97
2023-12-03T08:15:27.729Z,9.50
2023-12-03T08:17:55.173Z,12.80
2023-12-03T08:20:22.147Z,16.37
2023-12-03T08:22:49.103Z,15.47
2023-12-03T08:25:16.162Z,15.43
2023-12-03T08:27:44.009Z,16.80
2023-12-03T08:30:11.830Z,17.23
2023-12-03T08:32:38.851Z,14.27
2023-12-03T08:35:06.286Z,16.37
2023-12-03T08:37:33.809Z,14.97
2023-12-03T08:40:01.141Z,10.47
2023-12-03T08:42:28.159Z,14.80
2023-12-03T08:44:55.609Z,14.70
2023-12-03T08:47:22.639Z,13.37
2023-12-03T08:49:49.720Z,13.53
2023-12-03T08:52:16.970Z,15.47
2023-12-03T08:54:44.100Z,13.27
2023-12-03T08:57:11.105Z,13.37
2023-12-03T08:59:38.445Z,12.27
2023-12-03T09:02:06.377Z,18.60
2023-12-03T09:04:33.386Z,20.20
2023-12-03T09:07:01.554Z,19.43
2023-12-03T09:09:28.572Z,19.07
2023-12-03T09:11:56.084Z,21.50
2023-12-03T09:14:23.302Z,24.23
2023-12-03T09:16:50.259Z,23.47
2023-12-03T09:19:17.399Z,25.77
2023-12-03T09:21:44.432Z,27.40
2023-12-03T09:24:11.442Z,27.97
2023-12-03T09:26:38.954Z,28.20
2023-12-03T09:29:06.795Z,25.87
2023-12-03T09:31:33.755Z,23.73
2023-12-03T09:34:00.925Z,17.90
2023-12-03T09:36:28.097Z,26.93
2023-12-03T09:38:55.109Z,19.53
2023-12-03T09:41:25.025Z,25.27
2023-12-03T09:44:00.919Z,25.00
2023-12-03T09:46:33.679Z,32.83
2023-12-03T09:49:09.969Z,32.22
2023-12-03T09:51:41.514Z,35.67
2023-12-03T09:54:12.012Z,30.42
2023-12-03T09:56:43.385Z,27.50
2023-12-03T09:59:11.976Z,26.27
2023-12-03T10:01:39.863Z,23.93
2023-12-03T10:04:07.325Z,21.80
2023-12-03T10:06:43.385Z,26.13
2023-12-03T10:09:12.920Z,22.50
2023-12-03T10:11:41.187Z,24.97
2023-12-03T10:14:14.151Z,26.70
2023-12-03T10:16:41.648Z,22.40
2023-12-03T10:19:09.639Z,18.50
2023-12-03T10:21:36.738Z,21.38
2023-12-03T10:24:06.099Z,20.38
2023-12-03T10:26:33.217Z,16.00
2023-12-03T10:29:00.495Z,18.13
2023-12-03T10:31:31.936Z,19.70
2023-12-03T10:33:59.119Z,20.65
2023-12-03T10:36:31.241Z,20.95
2023-12-03T10:38:58.325Z,17.77
2023-12-03T10:41:25.767Z,18.45
2023-12-03T10:43:53.007Z,19.48
2023-12-03T10:46:23.436Z,21.63
2023-12-03T10:48:53.869Z,21.33
2023-12-03T10:51:21.136Z,16.75
2023-12-03T10:53:48.607Z,18.75
2023-12-03T10:56:18.237Z,17.53
2023-12-03T10:58:46.650Z,19.33
2023-12-03T11:01:20.808Z,22.60
2023-12-03T11:03:58.779Z,19.77
2023-12-03T11:06:27.195Z,20.17
2023-12-03T11:08:56.414Z,22.83
2023-12-03T11:11:23.852Z,23.40
2023-12-03T11:13:55.240Z,20.48
2023-12-03T11:16:26.472Z,17.27
2023-12-03T11:19:00.093Z,21.70
2023-12-03T11:22:00.001Z,17.08
2023-12-03T11:25:04.861Z,20.40
2023-12-03T11:27:33.084Z,15.00
2023-12-03T11:30:05.403Z,18.00
2023-12-03T11:32:36.184Z,15.47
2023-12-03T11:35:14.632Z,15.17
2023-12-03T11:37:48.002Z,15.43
2023-12-03T11:40:16.895Z,16.30
2023-12-03T11:42:51.183Z,16.47
2023-12-03T11:45:32.037Z,13.40
2023-12-03T11:48:08.125Z,13.87
2023-12-03T11:50:40.813Z,14.30
2023-12-03T11:53:17.394Z,12.65
2023-12-03T11:55:52.335Z,15.48
2023-12-03T11:58:24.399Z,13.73
2023-12-03T12:00:54.296Z,13.82
2023-12-03T12:03:32.150Z,11.65
2023-12-03T12:06:01.083Z,10.73
2023-12-03T12:08:28.157Z,13.07
2023-12-03T12:10:55.886Z,12.43
2023-12-03T12:13:27.204Z,15.05
2023-12-03T12:15:58.130Z,13.18
2023-12-03T12:18:25.619Z,13.90
2023-12-03T12:20:52.811Z,13.25
2023-12-03T12:23:19.958Z,14.60
2023-12-03T12:25:47.378Z,15.23
2023-12-03T12:28:16.025Z,16.25
2023-12-03T12:30:43.709Z,14.07
2023-12-03T12:33:12.894Z,14.15
2023-12-03T12:35:43.747Z,11.48
2023-12-03T12:38:19.551Z,12.18
2023-12-03T12:40:56.999Z,11.23
2023-12-03T12:43:24.554Z,12.35
2023-12-03T12:45:53.239Z,11.63
2023-12-03T12:48:29.080Z,12.25
2023-12-03T12:51:03.316Z,12.05
2023-12-03T12:53:56.520Z,12.32
2023-12-03T12:56:37.202Z,11.75
2023-12-03T12:59:04.383Z,13.37
2023-12-03T13:01:31.964Z,13.80
2023-12-03T13:04:37.531Z,10.50
2023-12-03T13:07:05.190Z,11.02
2023-12-03T13:09:32.529Z,10.25
2023-12-03T13:12:28.202Z,9.23
2023-12-03T13:14:56.702Z,11.65
2023-12-03T13:17:24.182Z,10.57
2023-12-03T13:19:51.861Z,9.65
2023-12-03T13:22:20.384Z,9.27
2023-12-03T13:24:49.869Z,13.40
2023-12-03T13:27:19.510Z,11.73
2023-12-03T13:29:55.605Z,11.05
2023-12-03T13:32:22.604Z,10.93
2023-12-03T13:34:49.600Z,13.25
2023-12-03T13:37:19.515Z,10.95
2023-12-03T13:39:49.594Z,11.57
2023-12-03T13:42:19.475Z,12.50
2023-12-03T13:44:51.808Z,10.00
2023-12-03T13:50:02.827Z,9.15
2023-12-03T13:52:30.709Z,9.55
2023-12-03T13:54:59.892Z,11.02
2023-12-03T13:57:28.313Z,11.40
2023-12-03T13:59:58.973Z,9.93
2023-12-03T14:02:35.471Z,9.52
2023-12-03T14:05:20.079Z,10.18
2023-12-03T14:07:50.725Z,12.73
2023-12-03T14:12:58.969Z,11.10
2023-12-03T14:15:26.305Z,11.77
2023-12-03T14:17:56.170Z,11.52
2023-12-03T14:20:23.458Z,11.38
2023-12-03T14:22:56.141Z,12.57
2023-12-03T14:25:27.325Z,11.82
2023-12-03T14:27:55.678Z,12.07
2023-12-03T14:30:22.840Z,11.93
2023-12-03T14:32:50.004Z,11.93
2023-12-03T14:35:20.179Z,11.80
2023-12-03T14:37:47.327Z,13.25
2023-12-03T14:40:17.121Z,12.05
2023-12-03T14:42:44.664Z,11.35
2023-12-03T14:45:16.126Z,11.50
2023-12-03T14:47:44.810Z,12.82
2023-12-03T14:50:12.179Z,10.60
2023-12-03T14:52:42.658Z,8.95
2023-12-03T14:55:11.231Z,11.90
2023-12-03T14:57:38.379Z,12.25
2023-12-03T15:00:09.610Z,10.40
2023-12-03T15:02:40.342Z,11.63
2023-12-03T15:05:27.691Z,10.77
2023-12-03T15:07:57.696Z,12.15
2023-12-03T15:10:25.310Z,10.40
2023-12-03T15:12:52.648Z,11.85
2023-12-03T15:15:30.355Z,10.20
2023-12-03T15:17:57.519Z,12.50
2023-12-03T15:20:24.707Z,11.35
2023-12-03T15:22:51.762Z,9.23
2023-12-03T15:25:18.943Z,11.45
2023-12-03T15:27:46.245Z,10.65
2023-12-03T15:30:15.213Z,7.63
2023-12-03T15:32:42.764Z,11.73
2023-12-03T15:35:22.760Z,10.33
2023-12-03T15:38:55.303Z,7.10
2023-12-03T15:41:43.603Z,8.15
2023-12-03T15:44:10.711Z,6.00
2023-12-03T15:46:39.432Z,6.78
2023-12-03T15:49:13.022Z,7.95
2023-12-03T15:51:45.970Z,7.72
2023-12-03T15:54:12.973Z,9.70
2023-12-03T15:56:43.492Z,7.22
2023-12-03T15:59:12.923Z,7.95
2023-12-03T16:01:40.340Z,7.43
2023-12-03T16:04:07.542Z,7.10
2023-12-03T16:06:34.679Z,9.88
2023-12-03T16:09:01.623Z,7.43
2023-12-03T16:11:28.747Z,9.90
2023-12-03T16:13:56.613Z,10.02
2023-12-03T16:16:24.914Z,10.68
2023-12-03T16:18:52.197Z,8.80
2023-12-03T16:21:19.421Z,10.55
2023-12-03T16:23:46.486Z,10.18
2023-12-03T16:26:13.653Z,9.48
2023-12-03T16:28:43.198Z,7.95
2023-12-03T16:31:10.340Z,8.85
2023-12-03T16:33:46.290Z,11.23
2023-12-03T16:36:13.563Z,8.63
2023-12-03T16:38:41.279Z,11.00
2023-12-03T16:41:14.495Z,11.73
2023-12-03T16:43:41.746Z,8.15
2023-12-03T16:46:10.187Z,9.10
2023-12-03T16:48:37.812Z,8.23
2023-12-03T16:51:08.591Z,8.80
2023-12-03T16:53:36.057Z,8.20
2023-12-03T16:56:03.285Z,9.32
2023-12-03T16:58:30.431Z,6.95
2023-12-03T17:01:02.365Z,10.43
2023-12-03T17:04:03.171Z,10.23
2023-12-03T17:07:25.799Z,10.38
2023-12-03T17:14:06.953Z,8.55
2023-12-03T17:16:34.093Z,11.32
2023-12-03T17:19:01.441Z,9.32
2023-12-03T17:21:28.581Z,10.88
2023-12-03T17:23:56.828Z,10.43
2023-12-03T17:26:24.165Z,11.43
2023-12-03T17:28:51.931Z,12.10
2023-12-03T17:31:19.015Z,13.05
2023-12-03T17:33:46.524Z,11.05
2023-12-03T17:36:14.037Z,11.27
2023-12-03T17:38:41.254Z,9.85
2023-12-03T17:41:16.366Z,10.18
2023-12-03T17:43:52.814Z,10.63
2023-12-03T17:46:31.887Z,9.45
2023-12-03T17:49:14.511Z,9.52
2023-12-03T17:51:47.742Z,9.77
2023-12-03T17:54:17.912Z,12.13
2023-12-03T17:56:44.984Z,10.13
2023-12-03T17:59:16.401Z,11.02
2023-12-03T18:01:45.962Z,11.20
2023-12-03T18:04:19.588Z,11.10
2023-12-03T18:06:47.535Z,12.57
2023-12-03T18:09:19.177Z,10.73
2023-12-03T18:11:49.892Z,12.45
2023-12-03T18:14:20.080Z,12.48
2023-12-03T18:16:56.253Z,11.10
2023-12-03T18:19:23.763Z,11.52
2023-12-03T18:21:50.908Z,13.07
2023-12-03T18:24:25.783Z,10.10
2023-12-03T18:26:53.166Z,11.95
2023-12-03T18:29:20.342Z,12.57
2023-12-03T18:31:47.467Z,11.43
2023-12-03T18:34:14.777Z,9.93
2023-12-03T18:36:41.910Z,13.10
2023-12-03T18:39:09.840Z,12.00
2023-12-03T18:41:37.117Z,12.45
2023-12-03T18:44:04.882Z,9.65
2023-12-03T18:46:31.992Z,10.38
2023-12-03T18:49:00.049Z,13.45
2023-12-03T18:51:27.680Z,11.38
2023-12-03T18:53:55.336Z,11.88
2023-12-03T18:56:22.379Z,9.43
2023-12-03T18:58:49.844Z,9.43
2023-12-03T19:01:19.883Z,10.95
2023-12-03T19:03:49.962Z,12.65
2023-12-03T19:06:19.689Z,8.65
2023-12-03T19:08:49.598Z,10.13
2023-12-03T19:11:16.959Z,8.77
2023-12-03T19:13:44.297Z,9.40
2023-12-03T19:16:14.561Z,9.93
2023-12-03T19:18:45.025Z,7.18
2023-12-03T19:21:17.359Z,7.40
2023-12-03T19:23:44.420Z,10.80
2023-12-03T19:26:11.600Z,9.80
2023-12-03T19:28:53.412Z,10.35
2023-12-03T19:31:51.161Z,9.93
2023-12-03T19:34:33.636Z,8.77
2023-12-03T19:37:19.660Z,10.27
2023-12-03T19:39:46.955Z,10.23
2023-12-03T19:42:14.295Z,8.93
2023-12-03T19:44:53.404Z,9.68
2023-12-03T19:47:20.489Z,9.60
2023-12-03T19:49:48.055Z,9.52
2023-12-03T19:52:16.363Z,11.98
2023-12-03T19:55:24.151Z,9.13
2023-12-03T19:57:52.343Z,9.00
2023-12-03T20:00:37.564Z,9.68
2023-12-03T20:07:04.209Z,10.30
2023-12-03T20:09:37.254Z,8.13
2023-12-03T20:12:41.941Z,7.43
2023-12-03T20:15:17.409Z,7.37
2023-12-03T20:17:48.582Z,8.37
2023-12-03T20:20:18.118Z,10.13
2023-12-03T20:22:45.150Z,9.33
2023-12-03T20:25:12.410Z,8.52
2023-12-03T20:27:39.342Z,10.40
2023-12-03T20:30:07.030Z,7.57
2023-12-03T20:32:34.037Z,9.57
2023-12-03T20:35:00.991Z,8.45
2023-12-03T20:37:29.159Z,8.10
2023-12-03T20:39:57.157Z,8.33
2023-12-03T20:42:24.296Z,7.77
2023-12-03T20:44:53.495Z,9.40
2023-12-03T20:47:20.632Z,9.10
2023-12-03T20:49:47.786Z,9.38
2023-12-03T20:52:17.917Z,8.15
2023-12-03T20:54:51.906Z,8.77
2023-12-03T20:57:21.117Z,9.23
2023-12-03T20:59:53.129Z,8.93
2023-12-03T21:02:22.756Z,8.90
2023-12-03T21:04:52.317Z,8.97
2023-12-03T21:07:21.571Z,6.80
2023-12-03T21:09:48.705Z,8.90
2023-12-03T21:16:24.840Z,8.20
2023-12-03T21:18:51.499Z,7.20
2023-12-03T21:21:43.192Z,6.90
2023-12-03T21:24:18.493Z,7.33
2023-12-03T21:30:48.006Z,8.90
2023-12-03T21:33:19.181Z,7.13
2023-12-03T21:35:52.312Z,5.45
2023-12-03T21:38:27.146Z,9.40
2023-12-03T21:40:54.700Z,7.83
2023-12-03T21:43:24.249Z,6.60
2023-12-03T21:45:55.349Z,6.80
2023-12-03T21:48:25.989Z,7.50
2023-12-03T21:50:53.186Z,8.60
2023-12-03T21:53:20.218Z,11.97
2023-12-03T21:55:47.302Z,10.37
2023-12-03T21:58:18.582Z,10.37
2023-12-03T22:00:45.697Z,6.87
2023-12-03T22:03:12.743Z,8.13
2023-12-03T22:05:39.954Z,8.67
2023-12-03T22:08:07.082Z,8.37
2023-12-03T22:10:34.254Z,8.23
2023-12-03T22:13:02.638Z,8.90
2023-12-03T22:15:29.879Z,7.30
2023-12-03T22:17:58.572Z,9.93
2023-12-03T22:20:25.648Z,8.65
2023-12-03T22:22:52.757Z,9.18
2023-12-03T22:25:19.845Z,8.17
2023-12-03T22:27:47.029Z,9.37
2023-12-03T22:30:17.088Z,8.30
2023-12-03T22:32:50.284Z,10.10
2023-12-03T22:35:19.920Z,7.68
2023-12-03T22:37:49.519Z,7.15
2023-12-03T22:40:19.459Z,9.93
2023-12-03T22:42:49.440Z,8.97
2023-12-03T22:45:26.259Z,8.32
2023-12-03T22:47:53.574Z,9.82
2023-12-03T22:50:21.422Z,8.27
2023-12-03T22:52:48.466Z,10.50
2023-12-03T22:55:15.600Z,10.45
2023-12-03T22:57:42.649Z,10.25
2023-12-03T23:00:14.759Z,9.32
2023-12-03T23:02:41.746Z,9.82
2023-12-03T23:05:09.098Z,7.67
2023-12-03T23:07:36.140Z,9.23
2023-12-03T23:10:04.155Z,10.10
2023-12-03T23:12:31.620Z,11.00
2023-12-03T23:14:58.616Z,8.75
2023-12-03T23:17:26.199Z,10.60
2023-12-03T23:19:53.311Z,8.52
2023-12-03T23:22:26.169Z,8.67
2023-12-03T23:24:53.314Z,9.50
2023-12-03T23:27:20.575Z,11.73
2023-12-03T23:29:55.093Z,10.17
2023-12-03T23:32:22.796Z,12.38
2023-12-03T23:34:49.913Z,10.55
2023-12-03T23:37:20.127Z,10.57
2023-12-03T23:39:47.353Z,8.53
2023-12-03T23:42:16.225Z,12.55
2023-12-03T23:44:43.224Z,12.80
2023-12-03T23:47:12.936Z,11.77
2023-12-03T23:49:40.185Z,11.83
2023-12-03T23:52:07.465Z,10.63
2023-12-03T23:54:35.430Z,12.77
2023-12-03T23:57:03.852Z,12.52
2023-12-03T23:59:30.785Z,13.33
